Time;durP1;ratioP1;P1;durP2;ratioP2;P2;SDS_P1;SDS_P2;PMS_P1;PMS_P2;Temp;Humidity;BMP_temperature;BMP_pressure;BME280_temperature;BME280_humidity;BME280_pressure;Samples;Min_cycle;Max_cycle;Signal;HPM_P1;HPM_P2
2022/08/05 00:00:05;;;;;;;7.00;1.90;;;19.90;99.90;;;;;;5014241;28;20045;-52
2022/08/05 00:02:30;;;;;;;5.60;1.85;;;19.90;99.90;;;;;;5014338;28;20033;-50
2022/08/05 00:04:56;;;;;;;5.85;1.85;;;19.90;99.90;;;;;;4980024;28;20060;-50
2022/08/05 00:07:23;;;;;;;6.72;2.13;;;19.80;99.90;;;;;;5014263;28;20037;-53
2022/08/05 00:09:48;;;;;;;5.25;1.70;;;19.70;99.90;;;;;;5012476;28;20396;-52
2022/08/05 00:12:14;;;;;;;6.47;2.00;;;19.90;99.90;;;;;;5013897;28;20038;-53
2022/08/05 00:14:40;;;;;;;4.30;1.80;;;19.90;99.90;;;;;;5013396;28;20547;-53
2022/08/05 00:17:05;;;;;;;5.45;1.70;;;20.00;99.90;;;;;;5013908;28;20049;-53
2022/08/05 00:19:31;;;;;;;5.47;2.00;;;19.90;99.90;;;;;;5013381;28;20049;-54
2022/08/05 00:21:57;;;;;;;6.70;1.70;;;19.90;99.90;;;;;;5006447;28;20052;-55
2022/08/05 00:24:23;;;;;;;4.05;1.58;;;20.00;99.90;;;;;;5005391;28;20033;-53
2022/08/05 00:26:49;;;;;;;7.38;1.85;;;19.90;99.90;;;;;;5012761;28;20034;-52
2022/08/05 00:29:14;;;;;;;6.55;2.15;;;20.00;99.90;;;;;;5012265;28;20129;-54
2022/08/05 00:31:40;;;;;;;4.50;2.00;;;19.90;99.90;;;;;;5012615;28;20038;-53
2022/08/05 00:34:06;;;;;;;7.38;2.05;;;19.80;99.90;;;;;;5012691;28;20068;-51
2022/08/05 00:36:31;;;;;;;6.60;2.15;;;19.90;99.90;;;;;;5012670;28;20095;-53
2022/08/05 00:38:57;;;;;;;6.45;1.65;;;20.00;99.90;;;;;;5012352;28;20042;-51
2022/08/05 00:41:31;;;;;;;4.90;1.58;;;20.00;99.90;;;;;;4995634;28;20033;-53
2022/08/05 00:43:57;;;;;;;4.70;1.52;;;20.00;99.90;;;;;;5013298;28;20482;-54
2022/08/05 00:46:23;;;;;;;6.82;1.52;;;19.90;99.90;;;;;;5013473;28;20046;-49
2022/08/05 00:48:50;;;;;;;6.30;1.58;;;19.90;99.90;;;;;;5013276;28;20038;-52
2022/08/05 00:51:17;;;;;;;5.60;1.63;;;19.80;99.90;;;;;;5013061;28;20041;-52
2022/08/05 00:53:43;;;;;;;4.65;1.58;;;19.90;99.90;;;;;;5001797;28;20042;-51
2022/08/05 00:56:09;;;;;;;6.00;1.63;;;19.80;99.90;;;;;;4993666;28;20539;-55
2022/08/05 00:58:35;;;;;;;6.38;1.98;;;19.80;99.90;;;;;;4993720;28;20132;-49
2022/08/05 01:01:01;;;;;;;6.70;2.17;;;19.70;99.90;;;;;;4999225;28;20046;-52
2022/08/05 01:03:29;;;;;;;4.75;1.45;;;19.70;99.90;;;;;;4994469;28;20046;-53
2022/08/05 01:05:55;;;;;;;5.00;1.75;;;19.70;99.90;;;;;;5000845;28;20050;-50
2022/08/05 01:08:21;;;;;;;5.43;2.03;;;19.80;99.90;;;;;;5011589;28;20062;-54
2022/08/05 01:11:10;;;;;;;5.45;1.90;;;19.90;99.90;;;;;;5012971;28;20042;-51
2022/08/05 01:14:06;;;;;;;4.65;1.80;;;19.70;99.90;;;;;;5012604;28;20044;-57
2022/08/05 01:16:53;;;;;;;5.95;1.70;;;19.60;99.90;;;;;;4992365;28;20478;-52
2022/08/05 01:19:21;;;;;;;6.80;1.90;;;19.60;99.90;;;;;;4992955;28;20081;-51
2022/08/05 01:22:14;;;;;;;4.78;1.90;;;19.60;99.90;;;;;;4992348;28;20053;-54
2022/08/05 01:25:00;;;;;;;5.78;1.90;;;19.60;99.90;;;;;;5001108;28;20040;-52
2022/08/05 01:27:44;;;;;;;8.27;2.50;;;19.50;99.90;;;;;;5011789;28;20053;-51
2022/08/05 01:30:12;;;;;;;6.75;2.10;;;19.40;99.90;;;;;;5012603;28;20060;-52
2022/08/05 01:32:43;;;;;;;7.43;2.30;;;19.40;99.90;;;;;;5012673;28;20073;-53
2022/08/05 01:35:13;;;;;;;5.43;2.10;;;19.40;99.90;;;;;;5012069;28;20508;-53
2022/08/05 01:37:51;;;;;;;10.63;2.85;;;19.40;99.90;;;;;;5011391;28;20069;-55
2022/08/05 01:40:18;;;;;;;5.35;2.08;;;19.40;99.90;;;;;;5012290;28;20072;-51
2022/08/05 01:42:45;;;;;;;5.78;1.98;;;19.40;99.90;;;;;;4994482;28;20504;-52
2022/08/05 01:45:13;;;;;;;7.25;2.03;;;19.30;99.90;;;;;;4994230;28;20073;-53
2022/08/05 01:47:40;;;;;;;7.78;2.28;;;19.40;99.90;;;;;;5012348;28;20038;-51
2022/08/05 01:50:14;;;;;;;6.97;2.10;;;19.30;99.90;;;;;;5012038;28;20359;-51
2022/08/05 01:52:43;;;;;;;5.07;1.90;;;19.30;99.90;;;;;;5011887;28;20041;-52
2022/08/05 01:55:11;;;;;;;7.38;2.17;;;19.20;99.90;;;;;;5011657;28;20088;-54
2022/08/05 01:57:41;;;;;;;7.68;2.20;;;19.30;99.90;;;;;;5012245;28;20045;-54
2022/08/05 02:00:11;;;;;;;6.75;2.10;;;19.10;99.90;;;;;;5011878;28;20473;-53
2022/08/05 02:02:40;;;;;;;6.13;2.00;;;19.10;99.90;;;;;;5012019;28;20389;-54
2022/08/05 02:05:09;;;;;;;6.13;2.25;;;19.10;99.90;;;;;;5011692;28;20045;-52
2022/08/05 02:07:36;;;;;;;5.38;2.25;;;19.00;99.90;;;;;;5011899;28;20116;-52
2022/08/05 02:10:03;;;;;;;10.13;2.10;;;19.00;99.90;;;;;;5011847;28;20099;-51
2022/08/05 02:12:45;;;;;;;5.50;1.98;;;19.00;99.90;;;;;;5011591;28;20180;-54
2022/08/05 02:15:17;;;;;;;5.82;2.15;;;19.00;99.90;;;;;;5011644;28;20068;-48
2022/08/05 02:17:51;;;;;;;5.75;2.20;;;19.00;99.90;;;;;;5011843;28;20556;-53
2022/08/05 02:20:23;;;;;;;7.00;2.38;;;18.90;99.90;;;;;;5011753;28;20042;-52
2022/08/05 02:23:09;;;;;;;5.95;2.20;;;18.80;99.90;;;;;;5011391;28;20069;-52
2022/08/05 02:25:38;;;;;;;5.93;2.22;;;18.80;99.90;;;;;;5011471;28;20116;-51
2022/08/05 02:28:07;;;;;;;6.68;2.30;;;18.80;99.90;;;;;;5011589;28;20486;-53
2022/08/05 02:30:45;;;;;;;5.40;2.22;;;18.80;99.90;;;;;;5010713;28;20618;-52
2022/08/05 02:33:17;;;;;;;8.43;2.50;;;18.80;99.90;;;;;;5011041;28;20042;-56
2022/08/05 02:35:44;;;;;;;4.68;1.92;;;18.70;99.90;;;;;;5011729;28;20485;-53
2022/08/05 02:38:11;;;;;;;7.25;2.10;;;18.70;99.90;;;;;;5011472;28;20052;-54
2022/08/05 02:40:41;;;;;;;5.45;2.40;;;18.80;99.90;;;;;;4993425;28;20172;-52
2022/08/05 02:43:08;;;;;;;6.07;2.67;;;18.80;99.90;;;;;;5011139;28;20199;-55
2022/08/05 02:45:35;;;;;;;5.93;2.50;;;18.70;99.90;;;;;;5011258;28;20041;-54
2022/08/05 02:48:02;;;;;;;8.00;2.40;;;18.80;99.90;;;;;;5011326;28;20496;-52
2022/08/05 02:50:28;;;;;;;6.70;2.70;;;18.90;99.90;;;;;;5011371;28;20084;-52
2022/08/05 02:52:55;;;;;;;6.03;2.42;;;18.80;99.90;;;;;;5010463;28;20057;-52
2022/08/05 02:55:21;;;;;;;6.13;2.45;;;18.80;99.90;;;;;;5011235;28;20122;-54
2022/08/05 02:57:49;;;;;;;5.55;2.40;;;18.60;99.90;;;;;;5011079;28;20503;-51
2022/08/05 03:00:16;;;;;;;9.25;2.55;;;18.60;99.90;;;;;;5010758;28;20037;-51
2022/08/05 03:02:45;;;;;;;14.35;3.05;;;18.60;99.90;;;;;;5011230;28;20154;-54
2022/08/05 03:05:12;;;;;;;5.70;2.40;;;18.60;99.90;;;;;;5011094;28;20104;-50
2022/08/05 03:07:39;;;;;;;6.30;2.55;;;18.60;99.90;;;;;;5011146;28;20070;-52
2022/08/05 03:10:06;;;;;;;9.85;3.50;;;18.60;99.90;;;;;;5010610;28;20509;-48
2022/08/05 03:12:34;;;;;;;6.68;2.53;;;18.60;99.90;;;;;;5010869;28;20041;-51
2022/08/05 03:15:00;;;;;;;6.00;2.65;;;18.60;99.90;;;;;;5010508;28;20081;-53
2022/08/05 03:17:26;;;;;;;5.05;2.50;;;18.50;99.90;;;;;;4977201;28;20042;-53
2022/08/05 03:19:52;;;;;;;5.22;2.35;;;18.50;99.90;;;;;;5010474;28;20050;-56
2022/08/05 03:22:17;;;;;;;7.10;2.17;;;18.50;99.90;;;;;;5010620;28;20401;-53
2022/08/05 03:24:45;;;;;;;7.32;2.47;;;18.40;99.90;;;;;;5010731;28;20205;-51
2022/08/05 03:27:11;;;;;;;6.90;2.42;;;18.40;99.90;;;;;;5010772;28;20042;-49
2022/08/05 03:29:39;;;;;;;7.00;2.85;;;18.30;99.90;;;;;;5010472;28;20046;-52
2022/08/05 03:32:09;;;;;;;8.43;2.42;;;18.40;99.90;;;;;;5013521;28;20432;-51
2022/08/05 03:34:35;;;;;;;7.60;2.10;;;18.40;99.90;;;;;;5014891;28;20084;-52
2022/08/05 03:37:02;;;;;;;4.68;2.38;;;18.30;99.90;;;;;;5014636;28;20037;-48
2022/08/05 03:39:28;;;;;;;7.95;2.50;;;18.40;99.90;;;;;;5014772;28;20042;-50
2022/08/05 03:41:55;;;;;;;7.18;2.42;;;18.30;99.90;;;;;;5014608;28;20065;-51
2022/08/05 03:44:20;;;;;;;7.78;2.78;;;18.30;99.90;;;;;;5014270;28;20046;-54
2022/08/05 03:46:46;;;;;;;6.68;2.60;;;18.30;99.90;;;;;;5014379;28;20425;-48
2022/08/05 03:49:12;;;;;;;8.02;2.83;;;18.30;99.90;;;;;;5014353;28;20030;-50
2022/08/05 03:51:42;;;;;;;6.30;2.67;;;18.20;99.90;;;;;;5013908;28;20064;-54
2022/08/05 03:54:15;;;;;;;6.70;2.83;;;18.20;99.90;;;;;;5014162;28;20168;-51
2022/08/05 03:56:44;;;;;;;5.20;2.50;;;18.20;99.90;;;;;;5013348;28;20041;-54
2022/08/05 03:59:17;;;;;;;5.50;2.67;;;18.20;99.90;;;;;;5013863;28;20163;-53
2022/08/05 04:01:48;;;;;;;7.93;2.92;;;18.20;99.90;;;;;;5012990;28;20477;-53
2022/08/05 04:04:15;;;;;;;6.78;2.97;;;18.20;99.90;;;;;;5013854;28;20053;-52
2022/08/05 04:06:42;;;;;;;5.82;2.83;;;18.20;99.90;;;;;;5014180;28;20116;-54
2022/08/05 04:09:08;;;;;;;6.10;2.70;;;18.20;99.90;;;;;;5014208;28;20138;-55
2022/08/05 04:11:36;;;;;;;10.27;3.13;;;18.20;99.90;;;;;;5014280;28;20108;-50
2022/08/05 04:14:03;;;;;;;6.80;2.85;;;18.20;99.90;;;;;;5014109;28;20038;-52
2022/08/05 04:16:30;;;;;;;7.80;3.20;;;18.20;99.90;;;;;;5012315;28;20033;-50
2022/08/05 04:18:56;;;;;;;7.53;2.92;;;18.10;99.90;;;;;;5013576;28;20410;-48
2022/08/05 04:21:22;;;;;;;7.18;2.72;;;18.10;99.90;;;;;;5013336;28;20045;-51
2022/08/05 04:23:48;;;;;;;7.53;3.13;;;18.20;99.90;;;;;;5013867;28;20461;-50
2022/08/05 04:26:14;;;;;;;6.22;3.10;;;18.10;99.90;;;;;;5013715;28;20046;-53
2022/08/05 04:28:40;;;;;;;7.00;3.10;;;18.10;99.90;;;;;;5012511;28;20053;-54
2022/08/05 04:31:06;;;;;;;8.30;2.95;;;18.20;99.90;;;;;;5013661;28;20077;-54
2022/08/05 04:33:31;;;;;;;5.68;2.83;;;18.30;99.90;;;;;;5013591;28;20469;-54
2022/08/05 04:35:57;;;;;;;7.03;2.85;;;18.30;99.90;;;;;;5013624;28;20050;-52
2022/08/05 04:38:23;;;;;;;5.97;2.65;;;18.30;99.90;;;;;;5013564;28;20505;-54
2022/08/05 04:40:48;;;;;;;11.23;3.00;;;18.30;99.90;;;;;;5013479;28;20038;-53
2022/08/05 04:43:14;;;;;;;6.20;2.72;;;18.30;99.90;;;;;;5012360;28;20065;-50
2022/08/05 04:45:40;;;;;;;8.40;2.53;;;18.30;99.90;;;;;;5013342;28;20116;-53
2022/08/05 04:48:10;;;;;;;5.13;2.95;;;18.30;99.90;;;;;;5013259;28;20033;-47
2022/08/05 04:50:41;;;;;;;4.97;2.60;;;18.20;99.90;;;;;;5013422;28;20125;-51
2022/08/05 04:53:08;;;;;;;9.85;3.42;;;18.20;99.90;;;;;;5012533;28;20046;-50
2022/08/05 04:55:37;;;;;;;7.03;3.30;;;18.20;99.90;;;;;;5013048;28;20124;-51
2022/08/05 04:58:05;;;;;;;5.22;3.17;;;18.10;99.90;;;;;;5012826;28;20037;-55
2022/08/05 05:00:35;;;;;;;6.10;3.15;;;18.20;99.90;;;;;;5012113;28;20497;-54
2022/08/05 05:03:02;;;;;;;6.55;3.30;;;18.10;99.90;;;;;;5013110;28;20389;-49
2022/08/05 05:05:28;;;;;;;6.38;3.45;;;18.10;99.90;;;;;;5013007;28;20574;-52
2022/08/05 05:07:55;;;;;;;6.15;3.22;;;18.10;99.90;;;;;;5013047;28;20184;-54
2022/08/05 05:10:21;;;;;;;6.13;3.35;;;18.00;99.90;;;;;;5013127;28;20444;-52
2022/08/05 05:12:46;;;;;;;7.88;3.63;;;18.00;99.90;;;;;;5013165;28;20047;-51
2022/08/05 05:15:12;;;;;;;8.65;3.33;;;18.00;99.90;;;;;;4994714;28;20034;-52
2022/08/05 05:17:45;;;;;;;6.90;3.42;;;18.00;99.90;;;;;;4993560;28;20037;-50
2022/08/05 05:20:12;;;;;;;8.07;3.77;;;17.90;99.90;;;;;;5011635;28;20103;-53
2022/08/05 05:22:38;;;;;;;6.57;3.20;;;17.90;99.90;;;;;;4994698;28;20037;-52
2022/08/05 05:25:05;;;;;;;9.02;4.20;;;17.80;99.90;;;;;;5012766;28;20392;-50
2022/08/05 05:27:32;;;;;;;6.50;3.83;;;17.90;99.90;;;;;;5013107;28;20543;-50
2022/08/05 05:29:58;;;;;;;7.18;3.80;;;17.80;99.90;;;;;;5012753;28;20033;-56
2022/08/05 05:32:24;;;;;;;6.43;3.67;;;17.70;99.90;;;;;;5012666;28;20044;-51
2022/08/05 05:34:50;;;;;;;8.40;3.90;;;17.70;99.90;;;;;;5012335;28;20045;-51
2022/08/05 05:37:16;;;;;;;6.68;3.60;;;17.60;99.90;;;;;;5012318;28;20481;-51
2022/08/05 05:39:42;;;;;;;5.97;3.67;;;17.60;99.90;;;;;;5012272;28;20472;-51
2022/08/05 05:42:07;;;;;;;6.07;3.58;;;17.60;99.90;;;;;;5012451;28;20123;-53
2022/08/05 05:44:33;;;;;;;6.70;3.90;;;17.60;99.90;;;;;;5012581;28;20045;-53
2022/08/05 05:46:59;;;;;;;6.68;3.92;;;17.50;99.90;;;;;;5012221;28;20042;-50
2022/08/05 05:49:25;;;;;;;6.78;4.18;;;17.60;99.90;;;;;;5011932;28;20422;-53
2022/08/05 05:51:52;;;;;;;6.10;3.70;;;17.70;99.90;;;;;;5011675;28;20042;-49
2022/08/05 05:54:18;;;;;;;7.18;4.10;;;17.70;99.90;;;;;;5011465;28;20046;-53
2022/08/05 05:56:43;;;;;;;6.50;4.43;;;17.70;99.90;;;;;;5011956;28;20034;-52
2022/08/05 05:59:09;;;;;;;9.75;4.25;;;17.70;99.90;;;;;;5011699;28;20404;-52
2022/08/05 06:01:37;;;;;;;8.10;4.43;;;17.70;99.90;;;;;;5011983;28;20026;-51
2022/08/05 06:04:04;;;;;;;7.43;4.70;;;17.80;99.90;;;;;;5011977;28;20042;-52
2022/08/05 06:06:29;;;;;;;7.40;4.60;;;17.90;99.90;;;;;;5011943;28;20038;-54
2022/08/05 06:08:55;;;;;;;6.20;4.30;;;17.90;99.90;;;;;;5012001;28;20145;-51
2022/08/05 06:11:21;;;;;;;7.50;3.97;;;17.90;99.90;;;;;;5011987;28;20053;-56
2022/08/05 06:13:46;;;;;;;5.70;3.95;;;18.00;99.90;;;;;;5011750;28;20049;-52
2022/08/05 06:16:12;;;;;;;6.53;4.38;;;17.90;99.90;;;;;;5011809;28;20038;-53
2022/08/05 06:18:38;;;;;;;5.90;3.97;;;17.90;99.90;;;;;;5011368;28;20053;-57
2022/08/05 06:21:03;;;;;;;6.47;3.88;;;17.90;99.90;;;;;;5011660;28;20192;-51
2022/08/05 06:23:30;;;;;;;7.00;4.25;;;17.90;99.90;;;;;;4993414;28;20061;-52
2022/08/05 06:25:56;;;;;;;5.63;3.95;;;18.00;99.90;;;;;;5011437;28;20041;-55
2022/08/05 06:28:22;;;;;;;6.47;4.00;;;18.00;99.90;;;;;;5011309;28;20034;-52
2022/08/05 06:30:48;;;;;;;7.68;4.10;;;18.10;99.90;;;;;;5011394;28;20049;-53
2022/08/05 06:33:14;;;;;;;6.00;3.70;;;18.10;99.90;;;;;;5006786;28;20498;-48
2022/08/05 06:35:39;;;;;;;8.27;4.00;;;18.20;99.90;;;;;;5002257;28;20034;-53
2022/08/05 06:38:05;;;;;;;7.38;3.88;;;18.30;99.90;;;;;;5004445;28;20042;-53
2022/08/05 06:40:31;;;;;;;8.18;3.70;;;18.40;99.90;;;;;;5004687;28;20045;-54
2022/08/05 06:42:56;;;;;;;6.40;3.50;;;18.50;99.90;;;;;;5009067;28;20041;-50
2022/08/05 06:45:22;;;;;;;7.20;3.50;;;18.60;99.90;;;;;;5009145;28;20041;-53
2022/08/05 06:47:48;;;;;;;8.07;3.45;;;18.60;99.90;;;;;;5008904;28;20044;-54
2022/08/05 06:50:14;;;;;;;5.72;3.20;;;18.70;99.90;;;;;;5008645;28;20536;-53
2022/08/05 06:52:39;;;;;;;5.22;2.80;;;18.80;99.90;;;;;;5008398;28;20374;-51
2022/08/05 06:55:06;;;;;;;7.80;2.58;;;19.00;99.90;;;;;;5008018;28;20382;-52
2022/08/05 06:57:31;;;;;;;5.65;2.67;;;19.10;99.90;;;;;;5009643;28;20110;-51
2022/08/05 06:59:57;;;;;;;6.90;2.47;;;19.20;99.90;;;;;;5008130;28;20042;-52
2022/08/05 07:02:23;;;;;;;6.18;2.60;;;19.30;99.90;;;;;;4973170;28;20816;-52
2022/08/05 07:04:48;;;;;;;5.90;2.42;;;19.50;99.90;;;;;;5007311;28;20390;-52
2022/08/05 07:07:14;;;;;;;5.18;2.33;;;19.60;99.90;;;;;;5005753;28;20501;-55
2022/08/05 07:09:40;;;;;;;4.47;1.70;;;19.80;99.90;;;;;;5006700;28;20505;-54
2022/08/05 07:12:06;;;;;;;4.35;1.50;;;19.70;99.90;;;;;;5007130;28;20045;-52
2022/08/05 07:17:16;;;;;;;;;;;19.60;99.90;;;;;;5006663;28;20045;-50
2022/08/05 07:19:41;;;;;;;6.00;1.88;;;19.70;99.90;;;;;;5005998;28;19921;-50
2022/08/05 07:22:07;;;;;;;3.78;1.58;;;19.70;99.90;;;;;;5004569;28;20060;-53
2022/08/05 07:24:33;;;;;;;5.97;1.38;;;19.70;99.90;;;;;;5008950;28;20481;-51
2022/08/05 07:26:58;;;;;;;4.78;1.60;;;19.50;99.90;;;;;;5008918;28;20033;-51
2022/08/05 07:29:24;;;;;;;4.00;1.13;;;19.60;99.90;;;;;;5008351;28;20048;-55
2022/08/05 07:31:50;;;;;;;6.55;1.50;;;19.50;99.90;;;;;;5008451;28;20037;-53
2022/08/05 07:34:15;;;;;;;2.30;0.98;;;19.60;99.90;;;;;;5008981;28;20046;-50
2022/08/05 07:36:41;;;;;;;4.93;1.27;;;19.50;99.90;;;;;;5007689;28;20501;-53
2022/08/05 07:39:08;;;;;;;3.78;1.17;;;19.60;99.90;;;;;;5005172;28;20045;-53
2022/08/05 07:41:35;;;;;;;3.80;1.08;;;19.60;99.90;;;;;;5005889;28;20049;-52
2022/08/05 07:44:02;;;;;;;4.28;1.13;;;19.50;99.90;;;;;;5007420;28;20037;-51
2022/08/05 07:46:30;;;;;;;3.00;1.10;;;19.80;99.90;;;;;;4988793;28;20061;-50
2022/08/05 07:48:57;;;;;;;3.60;1.10;;;19.60;99.90;;;;;;5007730;28;20029;-50
2022/08/05 07:51:22;;;;;;;3.38;0.93;;;19.60;99.90;;;;;;5006764;28;20038;-52
2022/08/05 07:53:48;;;;;;;2.75;0.80;;;19.60;99.90;;;;;;5007084;28;20046;-52
2022/08/05 07:56:14;;;;;;;3.47;0.82;;;19.60;99.90;;;;;;5006351;28;20401;-53
2022/08/05 07:58:40;;;;;;;4.70;1.30;;;19.50;99.90;;;;;;5006461;28;20706;-55
2022/08/05 08:01:06;;;;;;;5.45;1.30;;;19.50;99.90;;;;;;5008832;28;20366;-53
2022/08/05 08:03:32;;;;;;;7.60;1.23;;;19.80;99.90;;;;;;5009992;28;20096;-53
2022/08/05 08:05:57;;;;;;;4.35;0.98;;;19.90;99.90;;;;;;5010825;28;20492;-54
2022/08/05 08:08:23;;;;;;;4.38;1.20;;;20.00;99.90;;;;;;5002265;28;20121;-50
2022/08/05 08:10:49;;;;;;;3.50;1.02;;;20.10;99.90;;;;;;5004528;28;20489;-54
2022/08/05 08:13:15;;;;;;;3.10;1.00;;;20.10;99.90;;;;;;5013548;28;20381;-53
2022/08/05 08:15:40;;;;;;;5.18;1.00;;;20.30;99.90;;;;;;5007356;28;20580;-51
2022/08/05 08:18:06;;;;;;;2.80;0.80;;;20.40;99.90;;;;;;5010674;28;20080;-52
2022/08/05 08:20:32;;;;;;;3.97;0.95;;;20.40;99.90;;;;;;5014128;28;20478;-52
2022/08/05 08:22:59;;;;;;;3.53;0.85;;;20.40;99.90;;;;;;5013311;28;20523;-56
2022/08/05 08:25:27;;;;;;;3.33;1.30;;;20.50;99.90;;;;;;5014080;28;20108;-53
2022/08/05 08:27:53;;;;;;;2.90;0.88;;;20.30;99.90;;;;;;5013617;28;20045;-55
2022/08/05 08:30:19;;;;;;;2.25;0.68;;;20.40;99.90;;;;;;5012296;28;20034;-52
2022/08/05 08:32:45;;;;;;;2.70;0.80;;;20.30;99.90;;;;;;5013924;28;20034;-51
2022/08/05 08:35:11;;;;;;;2.72;0.70;;;20.20;99.90;;;;;;5013680;28;20038;-51
2022/08/05 08:37:36;;;;;;;1.33;0.40;;;20.40;99.90;;;;;;5014047;28;20053;-54
2022/08/05 08:40:03;;;;;;;2.03;0.60;;;20.40;99.90;;;;;;5013220;28;20418;-50
2022/08/05 08:42:29;;;;;;;4.13;0.55;;;20.60;99.90;;;;;;5013287;28;20072;-51
2022/08/05 08:44:56;;;;;;;3.22;0.50;;;20.60;99.90;;;;;;5013221;28;20085;-51
2022/08/05 08:47:24;;;;;;;2.75;0.65;;;20.80;99.90;;;;;;5012380;28;20393;-54
2022/08/05 08:49:55;;;;;;;1.70;0.60;;;20.90;99.90;;;;;;5013323;28;20038;-47
2022/08/05 08:52:28;;;;;;;2.40;0.63;;;21.00;99.90;;;;;;5013211;28;20049;-52
2022/08/05 08:54:54;;;;;;;1.02;0.57;;;21.00;99.90;;;;;;5012937;28;20096;-52
2022/08/05 08:57:21;;;;;;;3.05;0.60;;;21.20;99.90;;;;;;5013343;28;20042;-53
2022/08/05 08:59:48;;;;;;;5.80;0.60;;;21.10;99.90;;;;;;5012883;28;20034;-50
2022/08/05 09:02:16;;;;;;;2.78;0.60;;;20.80;99.90;;;;;;5011910;28;20034;-52
2022/08/05 09:04:44;;;;;;;3.78;0.60;;;20.80;99.90;;;;;;5012919;28;20508;-54
2022/08/05 09:07:09;;;;;;;2.20;0.55;;;21.10;99.90;;;;;;5013239;28;20120;-50
2022/08/05 09:09:36;;;;;;;2.65;0.50;;;21.30;99.90;;;;;;5012640;28;20125;-51
2022/08/05 09:12:07;;;;;;;1.75;0.50;;;21.20;99.90;;;;;;5013222;28;20700;-49
2022/08/05 09:14:34;;;;;;;1.70;0.40;;;21.00;99.90;;;;;;5012894;28;20082;-52
2022/08/05 09:17:02;;;;;;;1.90;0.32;;;21.10;99.90;;;;;;5012810;28;20037;-52
2022/08/05 09:19:28;;;;;;;3.55;0.70;;;21.40;99.90;;;;;;5012318;28;20057;-51
2022/08/05 09:21:53;;;;;;;3.80;0.63;;;21.30;99.90;;;;;;5012311;28;20046;-53
2022/08/05 09:24:19;;;;;;;3.33;0.40;;;21.40;99.40;;;;;;5012247;28;20452;-51
2022/08/05 09:26:49;;;;;;;4.75;0.50;;;21.40;98.10;;;;;;5012918;28;20491;-52
2022/08/05 09:29:14;;;;;;;1.92;0.60;;;21.80;99.20;;;;;;5011948;28;20029;-51
2022/08/05 09:31:42;;;;;;;2.88;0.40;;;21.90;99.40;;;;;;5012695;28;20524;-55
2022/08/05 09:34:09;;;;;;;1.75;0.40;;;21.90;99.90;;;;;;4978698;28;20425;-51
2022/08/05 09:36:54;;;;;;;4.25;0.68;;;21.40;99.20;;;;;;5012596;28;20385;-53
2022/08/05 09:39:21;;;;;;;3.15;0.40;;;21.10;99.90;;;;;;5012017;28;20048;-55
2022/08/05 09:42:03;;;;;;;1.23;0.43;;;21.30;99.10;;;;;;5011957;28;20042;-50
2022/08/05 09:45:04;;;;;;;2.15;0.43;;;21.50;96.90;;;;;;5011058;28;20042;-50
2022/08/05 09:47:30;;;;;;;3.20;0.40;;;21.80;97.00;;;;;;4984867;28;20089;-49
2022/08/05 09:49:57;;;;;;;1.45;0.50;;;22.10;96.70;;;;;;5011876;28;20038;-53
2022/08/05 09:52:28;;;;;;;1.73;0.47;;;22.00;94.40;;;;;;5011742;28;20052;-53
2022/08/05 09:55:06;;;;;;;1.30;0.30;;;22.10;94.80;;;;;;5011658;28;20058;-53
2022/08/05 09:57:42;;;;;;;4.30;0.70;;;22.30;95.90;;;;;;5012453;28;20129;-54
2022/08/05 10:00:14;;;;;;;1.67;0.40;;;22.20;95.60;;;;;;4994054;28;20049;-53
2022/08/05 10:02:45;;;;;;;1.90;0.30;;;22.10;94.30;;;;;;4991597;28;20493;-50
2022/08/05 10:05:18;;;;;;;2.90;0.70;;;21.80;94.50;;;;;;4992222;28;20034;-49
2022/08/05 10:07:54;;;;;;;1.70;0.38;;;21.70;96.30;;;;;;4992586;28;20085;-52
2022/08/05 10:10:43;;;;;;;2.80;0.80;;;21.60;96.40;;;;;;4992417;28;20104;-52
2022/08/05 10:13:08;;;;;;;4.13;0.50;;;21.70;95.90;;;;;;4991455;28;20042;-51
2022/08/05 10:15:37;;;;;;;2.35;0.40;;;21.50;95.60;;;;;;5007187;28;20044;-52
2022/08/05 10:18:21;;;;;;;1.33;0.38;;;21.40;94.60;;;;;;5011614;28;20497;-52
2022/08/05 10:20:50;;;;;;;1.48;0.38;;;21.60;93.60;;;;;;5011692;28;20477;-50
2022/08/05 10:23:22;;;;;;;1.73;0.28;;;21.80;94.00;;;;;;5010256;28;20034;-53
2022/08/05 10:25:48;;;;;;;0.82;0.20;;;22.10;91.50;;;;;;5010772;28;20057;-51
2022/08/05 10:28:16;;;;;;;0.50;0.20;;;22.00;91.80;;;;;;4994139;28;20038;-50
2022/08/05 10:30:42;;;;;;;2.15;0.38;;;22.20;91.70;;;;;;5011671;28;20049;-51
2022/08/05 10:33:08;;;;;;;1.08;0.35;;;22.30;91.80;;;;;;5011648;28;20052;-53
2022/08/05 10:35:34;;;;;;;1.52;0.25;;;22.40;92.10;;;;;;5011442;28;20038;-53
2022/08/05 10:38:01;;;;;;;3.08;0.30;;;22.60;90.40;;;;;;5011632;28;20037;-52
2022/08/05 10:40:45;;;;;;;1.27;0.20;;;22.30;87.60;;;;;;5010105;28;20057;-52
2022/08/05 10:43:33;;;;;;;0.90;0.20;;;22.50;89.50;;;;;;5010092;28;20157;-52
2022/08/05 10:46:03;;;;;;;2.40;0.30;;;22.70;89.10;;;;;;5011571;28;20764;-55
2022/08/05 10:48:35;;;;;;;3.17;0.30;;;22.60;83.20;;;;;;5010783;28;20030;-51
2022/08/05 10:51:07;;;;;;;1.13;0.20;;;22.70;83.80;;;;;;5011138;28;20053;-54
2022/08/05 10:53:34;;;;;;;1.77;0.20;;;22.70;87.50;;;;;;5010559;28;20045;-52
2022/08/05 10:56:14;;;;;;;1.10;0.30;;;22.70;90.50;;;;;;5011280;28;20103;-52
2022/08/05 10:58:47;;;;;;;3.38;0.30;;;22.80;86.60;;;;;;4993065;28;20042;-52
2022/08/05 11:01:13;;;;;;;1.85;0.20;;;23.10;88.60;;;;;;5011158;28;20046;-53
2022/08/05 11:03:58;;;;;;;0.35;0.20;;;23.30;86.40;;;;;;5010929;28;20060;-55
2022/08/05 11:06:24;;;;;;;1.52;0.22;;;23.10;85.10;;;;;;5011152;28;20497;-49
2022/08/05 11:09:10;;;;;;;3.50;0.20;;;23.00;88.40;;;;;;5011071;28;20029;-52
2022/08/05 11:11:36;;;;;;;2.05;0.30;;;23.00;87.10;;;;;;5000450;28;20049;-52
2022/08/05 11:14:03;;;;;;;2.28;0.20;;;23.20;87.10;;;;;;5011150;28;20077;-56
2022/08/05 11:16:30;;;;;;;0.98;0.17;;;23.30;88.60;;;;;;5010821;28;20412;-55
2022/08/05 11:19:30;;;;;;;2.50;0.20;;;23.10;84.90;;;;;;5010744;28;20065;-54
2022/08/05 11:22:16;;;;;;;2.20;0.25;;;23.00;87.30;;;;;;5010637;28;20042;-51
2022/08/05 11:24:44;;;;;;;1.20;0.20;;;22.80;84.90;;;;;;5010337;28;20088;-52
2022/08/05 11:27:30;;;;;;;3.10;0.32;;;22.40;85.10;;;;;;5011184;28;20030;-50
2022/08/05 11:29:59;;;;;;;0.63;0.20;;;22.70;86.50;;;;;;5011050;28;20053;-51
2022/08/05 11:32:27;;;;;;;2.53;0.20;;;22.40;85.60;;;;;;5010569;28;20045;-54
2022/08/05 11:34:56;;;;;;;3.10;0.40;;;22.50;87.40;;;;;;5010985;28;20096;-53
2022/08/05 11:37:40;;;;;;;2.55;0.28;;;22.40;88.20;;;;;;5010878;28;20080;-55
2022/08/05 11:40:07;;;;;;;0.52;0.20;;;22.50;86.60;;;;;;5010732;28;20030;-50
2022/08/05 11:42:33;;;;;;;1.30;0.32;;;22.50;87.70;;;;;;5010602;28;20038;-54
2022/08/05 11:45:04;;;;;;;0.60;0.20;;;22.30;88.60;;;;;;5010741;28;20125;-51
2022/08/05 11:47:34;;;;;;;2.17;0.30;;;22.40;85.30;;;;;;5010906;28;20528;-52
2022/08/05 11:50:00;;;;;;;0.95;0.20;;;22.50;88.20;;;;;;5009681;28;20167;-55
2022/08/05 11:52:27;;;;;;;2.08;0.40;;;22.60;87.90;;;;;;5011256;28;20159;-50
2022/08/05 11:54:53;;;;;;;3.75;0.43;;;22.40;83.70;;;;;;5013228;28;20045;-48
2022/08/05 11:57:19;;;;;;;1.58;0.20;;;22.50;88.20;;;;;;5014445;28;20366;-52
2022/08/05 11:59:45;;;;;;;2.03;0.30;;;22.30;89.30;;;;;;5014492;28;20521;-52
2022/08/05 12:02:11;;;;;;;1.00;0.28;;;22.50;90.40;;;;;;5014279;28;20108;-52
2022/08/05 12:04:49;;;;;;;0.63;0.20;;;22.60;90.20;;;;;;5014218;28;20042;-52
2022/08/05 12:07:17;;;;;;;1.95;0.28;;;22.50;90.60;;;;;;5013462;28;20386;-50
2022/08/05 12:09:53;;;;;;;1.13;0.20;;;22.20;90.50;;;;;;5013789;28;20048;-53
2022/08/05 12:12:23;;;;;;;2.13;0.30;;;22.20;90.70;;;;;;5013124;28;20036;-51
2022/08/05 12:14:49;;;;;;;0.77;0.20;;;22.00;90.90;;;;;;5013908;28;20042;-52
2022/08/05 12:17:15;;;;;;;1.13;0.30;;;21.80;90.70;;;;;;5014174;28;20045;-54
2022/08/05 12:19:45;;;;;;;2.33;0.30;;;21.60;90.80;;;;;;5013447;28;20046;-52
2022/08/05 12:22:13;;;;;;;1.73;0.30;;;21.90;90.80;;;;;;5013439;28;20046;-53
2022/08/05 12:24:45;;;;;;;1.70;0.40;;;21.90;90.90;;;;;;5012371;28;20049;-52
2022/08/05 12:27:20;;;;;;;3.70;0.50;;;21.80;90.70;;;;;;5012443;28;20026;-51
2022/08/05 12:29:56;;;;;;;2.35;0.40;;;21.70;91.50;;;;;;4995231;28;20073;-52
2022/08/05 12:32:22;;;;;;;1.77;0.30;;;21.60;92.20;;;;;;5013639;28;20089;-50
2022/08/05 12:34:48;;;;;;;1.92;0.30;;;21.70;92.60;;;;;;5012474;28;20042;-52
2022/08/05 12:37:15;;;;;;;2.70;0.20;;;21.70;92.40;;;;;;5013431;28;20038;-53
2022/08/05 12:39:42;;;;;;;1.92;0.30;;;21.60;91.60;;;;;;5012070;28;20064;-53
2022/08/05 12:42:16;;;;;;;0.90;0.32;;;21.50;90.10;;;;;;5013721;28;20042;-51
2022/08/05 12:44:43;;;;;;;1.88;0.30;;;21.40;91.60;;;;;;5013373;28;20045;-54
2022/08/05 12:47:09;;;;;;;1.65;0.20;;;21.60;92.40;;;;;;4996024;28;20468;-54
2022/08/05 12:49:40;;;;;;;0.73;0.10;;;21.70;91.40;;;;;;5013376;28;20030;-55
2022/08/05 12:52:14;;;;;;;2.40;0.43;;;21.50;92.10;;;;;;5012711;28;20099;-54
2022/08/05 12:54:41;;;;;;;3.72;0.30;;;21.60;92.60;;;;;;5012785;28;20096;-51
2022/08/05 12:57:09;;;;;;;1.13;0.20;;;21.60;92.30;;;;;;5013368;28;20481;-53